sensor_id;sensor_type;location;lat;lon;timestamp;pressure;altitude;pressure_sealevel;temperature
72278;BMP280;61204;49.980;8.358;2022-09-12T00:01:08;100854.44;;;13.50
72278;BMP280;61204;49.980;8.358;2022-09-12T00:03:46;100848.94;;;13.50
72278;BMP280;61204;49.980;8.358;2022-09-12T00:06:18;100846.78;;;13.48
72278;BMP280;61204;49.980;8.358;2022-09-12T00:08:53;100841.75;;;13.45
72278;BMP280;61204;49.980;8.358;2022-09-12T00:11:23;100838.84;;;13.42
72278;BMP280;61204;49.980;8.358;2022-09-12T00:13:50;100850.13;;;13.47
72278;BMP280;61204;49.980;8.358;2022-09-12T00:16:22;100844.53;;;13.56
72278;BMP280;61204;49.980;8.358;2022-09-12T00:18:51;100840.00;;;13.72
72278;BMP280;61204;49.980;8.358;2022-09-12T00:21:18;100844.13;;;13.83
72278;BMP280;61204;49.980;8.358;2022-09-12T00:23:47;100842.47;;;13.90
72278;BMP280;61204;49.980;8.358;2022-09-12T00:26:16;100829.41;;;13.90
72278;BMP280;61204;49.980;8.358;2022-09-12T00:28:43;100831.31;;;13.88
72278;BMP280;61204;49.980;8.358;2022-09-12T00:31:12;100823.41;;;13.82
72278;BMP280;61204;49.980;8.358;2022-09-12T00:33:41;100817.66;;;13.78
72278;BMP280;61204;49.980;8.358;2022-09-12T00:36:19;100822.53;;;13.68
72278;BMP280;61204;49.980;8.358;2022-09-12T00:38:49;100819.41;;;13.62
72278;BMP280;61204;49.980;8.358;2022-09-12T00:41:20;100819.03;;;13.56
72278;BMP280;61204;49.980;8.358;2022-09-12T00:44:49;100826.91;;;13.50
72278;BMP280;61204;49.980;8.358;2022-09-12T00:47:03;100828.69;;;13.45
72278;BMP280;61204;49.980;8.358;2022-09-12T00:49:47;100825.81;;;13.43
72278;BMP280;61204;49.980;8.358;2022-09-12T00:52:42;100827.69;;;13.40
72278;BMP280;61204;49.980;8.358;2022-09-12T00:55:18;100822.06;;;13.38
72278;BMP280;61204;49.980;8.358;2022-09-12T00:57:57;100823.13;;;13.33
72278;BMP280;61204;49.980;8.358;2022-09-12T01:00:31;100819.97;;;13.27
72278;BMP280;61204;49.980;8.358;2022-09-12T01:03:04;100819.72;;;13.23
72278;BMP280;61204;49.980;8.358;2022-09-12T01:05:41;100820.59;;;13.26
72278;BMP280;61204;49.980;8.358;2022-09-12T01:08:17;100813.41;;;13.21
72278;BMP280;61204;49.980;8.358;2022-09-12T01:10:45;100818.94;;;13.32
72278;BMP280;61204;49.980;8.358;2022-09-12T01:13:11;100818.47;;;13.36
72278;BMP280;61204;49.980;8.358;2022-09-12T01:15:38;100825.81;;;13.43
72278;BMP280;61204;49.980;8.358;2022-09-12T01:21:08;100819.53;;;13.31
72278;BMP280;61204;49.980;8.358;2022-09-12T01:27:29;100818.59;;;13.38
72278;BMP280;61204;49.980;8.358;2022-09-12T01:30:19;100812.38;;;13.37
72278;BMP280;61204;49.980;8.358;2022-09-12T01:33:10;100813.91;;;13.29
72278;BMP280;61204;49.980;8.358;2022-09-12T01:40:01;100807.47;;;13.14
72278;BMP280;61204;49.980;8.358;2022-09-12T01:42:44;100805.19;;;13.11
72278;BMP280;61204;49.980;8.358;2022-09-12T01:51:27;100808.09;;;13.13
72278;BMP280;61204;49.980;8.358;2022-09-12T01:54:07;100814.63;;;13.08
72278;BMP280;61204;49.980;8.358;2022-09-12T01:56:42;100822.63;;;13.04
72278;BMP280;61204;49.980;8.358;2022-09-12T01:59:26;100821.03;;;13.01
72278;BMP280;61204;49.980;8.358;2022-09-12T02:02:28;100812.41;;;12.95
72278;BMP280;61204;49.980;8.358;2022-09-12T02:05:27;100819.09;;;12.92
72278;BMP280;61204;49.980;8.358;2022-09-12T02:08:21;100819.25;;;12.94
72278;BMP280;61204;49.980;8.358;2022-09-12T02:10:59;100822.44;;;12.90
72278;BMP280;61204;49.980;8.358;2022-09-12T02:13:38;100827.34;;;12.92
72278;BMP280;61204;49.980;8.358;2022-09-12T02:16:29;100829.84;;;12.88
72278;BMP280;61204;49.980;8.358;2022-09-12T02:19:09;100837.97;;;12.85
72278;BMP280;61204;49.980;8.358;2022-09-12T02:21:55;100830.63;;;12.78
72278;BMP280;61204;49.980;8.358;2022-09-12T02:24:39;100845.22;;;12.81
72278;BMP280;61204;49.980;8.358;2022-09-12T02:27:17;100843.91;;;12.82
72278;BMP280;61204;49.980;8.358;2022-09-12T02:29:47;100838.81;;;12.88
72278;BMP280;61204;49.980;8.358;2022-09-12T02:32:29;100836.94;;;12.91
72278;BMP280;61204;49.980;8.358;2022-09-12T02:35:12;100839.69;;;12.91
72278;BMP280;61204;49.980;8.358;2022-09-12T02:38:01;100836.84;;;13.00
72278;BMP280;61204;49.980;8.358;2022-09-12T02:40:34;100833.97;;;12.98
72278;BMP280;61204;49.980;8.358;2022-09-12T02:43:03;100831.94;;;12.99
72278;BMP280;61204;49.980;8.358;2022-09-12T02:45:31;100829.28;;;13.01
72278;BMP280;61204;49.980;8.358;2022-09-12T02:48:05;100833.97;;;12.98
72278;BMP280;61204;49.980;8.358;2022-09-12T02:50:53;100828.47;;;12.98
72278;BMP280;61204;49.980;8.358;2022-09-12T02:53:20;100830.97;;;12.94
72278;BMP280;61204;49.980;8.358;2022-09-12T02:55:47;100831.16;;;12.87
72278;BMP280;61204;49.980;8.358;2022-09-12T02:58:17;100836.94;;;12.91
72278;BMP280;61204;49.980;8.358;2022-09-12T03:01:01;100830.84;;;12.92
72278;BMP280;61204;49.980;8.358;2022-09-12T03:03:57;100835.97;;;12.86
72278;BMP280;61204;49.980;8.358;2022-09-12T03:13:17;100828.47;;;12.98
72278;BMP280;61204;49.980;8.358;2022-09-12T03:22:08;100830.44;;;12.86
72278;BMP280;61204;49.980;8.358;2022-09-12T03:27:36;100823.91;;;12.81
72278;BMP280;61204;49.980;8.358;2022-09-12T03:30:22;100826.84;;;12.74
72278;BMP280;61204;49.980;8.358;2022-09-12T03:32:51;100818.09;;;12.66
72278;BMP280;61204;49.980;8.358;2022-09-12T03:35:23;100819.00;;;12.58
72278;BMP280;61204;49.980;8.358;2022-09-12T03:37:50;100823.06;;;12.57
72278;BMP280;61204;49.980;8.358;2022-09-12T03:40:17;100830.72;;;12.59
72278;BMP280;61204;49.980;8.358;2022-09-12T03:42:43;100825.09;;;12.57
72278;BMP280;61204;49.980;8.358;2022-09-12T03:45:10;100823.50;;;12.54
72278;BMP280;61204;49.980;8.358;2022-09-12T03:47:36;100826.44;;;12.46
72278;BMP280;61204;49.980;8.358;2022-09-12T03:50:02;100831.94;;;12.46
72278;BMP280;61204;49.980;8.358;2022-09-12T03:52:29;100835.13;;;12.43
72278;BMP280;61204;49.980;8.358;2022-09-12T03:54:54;100841.19;;;12.51
72278;BMP280;61204;49.980;8.358;2022-09-12T03:57:20;100847.00;;;12.45
72278;BMP280;61204;49.980;8.358;2022-09-12T03:59:47;100855.28;;;12.45
72278;BMP280;61204;49.980;8.358;2022-09-12T04:02:14;100843.97;;;12.41
72278;BMP280;61204;49.980;8.358;2022-09-12T04:04:42;100851.38;;;12.39
72278;BMP280;61204;49.980;8.358;2022-09-12T04:07:09;100848.91;;;12.33
72278;BMP280;61204;49.980;8.358;2022-09-12T04:09:36;100850.53;;;12.26
72278;BMP280;61204;49.980;8.358;2022-09-12T04:12:02;100850.28;;;12.22
72278;BMP280;61204;49.980;8.358;2022-09-12T04:14:28;100854.19;;;12.19
72278;BMP280;61204;49.980;8.358;2022-09-12T04:16:57;100851.44;;;12.19
72278;BMP280;61204;49.980;8.358;2022-09-12T04:19:25;100846.50;;;12.18
72278;BMP280;61204;49.980;8.358;2022-09-12T04:21:51;100852.47;;;12.14
72278;BMP280;61204;49.980;8.358;2022-09-12T04:24:17;100851.28;;;12.17
72278;BMP280;61204;49.980;8.358;2022-09-12T04:26:42;100859.41;;;12.15
72278;BMP280;61204;49.980;8.358;2022-09-12T04:29:11;100857.22;;;12.14
72278;BMP280;61204;49.980;8.358;2022-09-12T04:31:41;100869.69;;;12.15
72278;BMP280;61204;49.980;8.358;2022-09-12T04:34:08;100871.22;;;12.18
72278;BMP280;61204;49.980;8.358;2022-09-12T04:36:35;100864.31;;;12.17
72278;BMP280;61204;49.980;8.358;2022-09-12T04:39:06;100874.59;;;12.16
72278;BMP280;61204;49.980;8.358;2022-09-12T04:41:39;100868.22;;;12.14
72278;BMP280;61204;49.980;8.358;2022-09-12T04:44:13;100871.84;;;12.07
72278;BMP280;61204;49.980;8.358;2022-09-12T04:46:45;100876.63;;;12.06
72278;BMP280;61204;49.980;8.358;2022-09-12T04:49:12;100879.69;;;12.00
72278;BMP280;61204;49.980;8.358;2022-09-12T04:51:41;100874.91;;;12.01
72278;BMP280;61204;49.980;8.358;2022-09-12T04:54:11;100867.94;;;12.10
72278;BMP280;61204;49.980;8.358;2022-09-12T04:56:47;100880.50;;;12.22
72278;BMP280;61204;49.980;8.358;2022-09-12T04:59:39;100879.75;;;12.32
72278;BMP280;61204;49.980;8.358;2022-09-12T05:02:07;100877.88;;;12.34
72278;BMP280;61204;49.980;8.358;2022-09-12T05:04:35;100877.44;;;12.38
72278;BMP280;61204;49.980;8.358;2022-09-12T05:07:01;100877.53;;;12.49
72278;BMP280;61204;49.980;8.358;2022-09-12T05:09:26;100884.72;;;12.54
72278;BMP280;61204;49.980;8.358;2022-09-12T05:12:05;100884.72;;;12.64
72278;BMP280;61204;49.980;8.358;2022-09-12T05:14:33;100883.22;;;12.73
72278;BMP280;61204;49.980;8.358;2022-09-12T05:16:59;100874.25;;;12.72
72278;BMP280;61204;49.980;8.358;2022-09-12T05:19:27;100871.56;;;12.84
72278;BMP280;61204;49.980;8.358;2022-09-12T05:21:55;100865.28;;;12.93
72278;BMP280;61204;49.980;8.358;2022-09-12T05:24:24;100844.91;;;13.08
72278;BMP280;61204;49.980;8.358;2022-09-12T05:26:50;100835.88;;;13.17
72278;BMP280;61204;49.980;8.358;2022-09-12T05:29:18;100814.22;;;13.23
72278;BMP280;61204;49.980;8.358;2022-09-12T05:31:46;100812.97;;;13.36
72278;BMP280;61204;49.980;8.358;2022-09-12T05:34:16;100795.41;;;13.53
72278;BMP280;61204;49.980;8.358;2022-09-12T05:36:43;100788.13;;;13.69
72278;BMP280;61204;49.980;8.358;2022-09-12T05:39:09;100795.25;;;13.95
72278;BMP280;61204;49.980;8.358;2022-09-12T05:41:34;100788.66;;;14.12
72278;BMP280;61204;49.980;8.358;2022-09-12T05:44:11;100781.09;;;14.24
72278;BMP280;61204;49.980;8.358;2022-09-12T05:46:51;100764.19;;;14.42
72278;BMP280;61204;49.980;8.358;2022-09-12T05:49:18;100755.41;;;14.57
72278;BMP280;61204;49.980;8.358;2022-09-12T05:51:46;100764.69;;;14.87
72278;BMP280;61204;49.980;8.358;2022-09-12T05:54:16;100759.81;;;14.99
72278;BMP280;61204;49.980;8.358;2022-09-12T05:56:45;100766.63;;;15.10
72278;BMP280;61204;49.980;8.358;2022-09-12T05:59:19;100763.94;;;15.12
72278;BMP280;61204;49.980;8.358;2022-09-12T06:01:52;100761.31;;;15.14
72278;BMP280;61204;49.980;8.358;2022-09-12T06:04:46;100758.75;;;15.18
72278;BMP280;61204;49.980;8.358;2022-09-12T06:07:12;100756.66;;;15.30
72278;BMP280;61204;49.980;8.358;2022-09-12T06:09:38;100759.34;;;15.42
72278;BMP280;61204;49.980;8.358;2022-09-12T06:12:06;100754.19;;;15.62
72278;BMP280;61204;49.980;8.358;2022-09-12T06:14:32;100756.56;;;15.81
72278;BMP280;61204;49.980;8.358;2022-09-12T06:16:58;100750.59;;;15.87
72278;BMP280;61204;49.980;8.358;2022-09-12T06:19:26;100752.34;;;15.94
72278;BMP280;61204;49.980;8.358;2022-09-12T06:21:56;100757.47;;;16.13
72278;BMP280;61204;49.980;8.358;2022-09-12T06:24:23;100758.38;;;16.31
72278;BMP280;61204;49.980;8.358;2022-09-12T06:26:49;100753.72;;;16.50
72278;BMP280;61204;49.980;8.358;2022-09-12T06:29:17;100743.09;;;16.74
72278;BMP280;61204;49.980;8.358;2022-09-12T06:31:44;100745.81;;;16.87
72278;BMP280;61204;49.980;8.358;2022-09-12T06:34:12;100743.63;;;17.00
72278;BMP280;61204;49.980;8.358;2022-09-12T06:36:47;100744.06;;;17.41
72278;BMP280;61204;49.980;8.358;2022-09-12T06:39:16;100739.22;;;16.95
72278;BMP280;61204;49.980;8.358;2022-09-12T06:41:47;100742.28;;;17.16
72278;BMP280;61204;49.980;8.358;2022-09-12T06:44:17;100741.13;;;17.37
72278;BMP280;61204;49.980;8.358;2022-09-12T06:46:46;100747.38;;;17.53
72278;BMP280;61204;49.980;8.358;2022-09-12T06:49:13;100746.94;;;17.75
72278;BMP280;61204;49.980;8.358;2022-09-12T06:51:40;100748.78;;;17.86
72278;BMP280;61204;49.980;8.358;2022-09-12T06:54:06;100745.69;;;18.29
72278;BMP280;61204;49.980;8.358;2022-09-12T06:56:33;100741.44;;;18.44
72278;BMP280;61204;49.980;8.358;2022-09-12T06:58:59;100751.22;;;18.45
72278;BMP280;61204;49.980;8.358;2022-09-12T07:01:29;100755.34;;;18.80
72278;BMP280;61204;49.980;8.358;2022-09-12T07:04:01;100749.94;;;18.84
72278;BMP280;61204;49.980;8.358;2022-09-12T07:06:31;100759.09;;;19.06
72278;BMP280;61204;49.980;8.358;2022-09-12T07:09:04;100752.81;;;19.05
72278;BMP280;61204;49.980;8.358;2022-09-12T07:11:34;100752.91;;;19.08
72278;BMP280;61204;49.980;8.358;2022-09-12T07:14:03;100752.72;;;19.41
72278;BMP280;61204;49.980;8.358;2022-09-12T07:16:33;100743.00;;;20.25
72278;BMP280;61204;49.980;8.358;2022-09-12T07:19:01;100751.81;;;20.18
72278;BMP280;61204;49.980;8.358;2022-09-12T07:21:29;100743.06;;;20.27
72278;BMP280;61204;49.980;8.358;2022-09-12T07:23:56;100746.66;;;20.54
72278;BMP280;61204;49.980;8.358;2022-09-12T07:26:23;100750.78;;;20.75
72278;BMP280;61204;49.980;8.358;2022-09-12T07:28:52;100756.19;;;20.69
72278;BMP280;61204;49.980;8.358;2022-09-12T07:31:21;100749.00;;;21.09
72278;BMP280;61204;49.980;8.358;2022-09-12T07:33:50;100752.28;;;21.28
72278;BMP280;61204;49.980;8.358;2022-09-12T07:36:18;100745.56;;;20.87
72278;BMP280;61204;49.980;8.358;2022-09-12T07:38:46;100750.16;;;20.78
72278;BMP280;61204;49.980;8.358;2022-09-12T07:41:19;100755.38;;;20.66
72278;BMP280;61204;49.980;8.358;2022-09-12T07:43:51;100748.81;;;21.03
72278;BMP280;61204;49.980;8.358;2022-09-12T07:46:20;100738.09;;;21.19
72278;BMP280;61204;49.980;8.358;2022-09-12T07:48:52;100739.56;;;21.76
72278;BMP280;61204;49.980;8.358;2022-09-12T07:51:20;100736.69;;;21.72
72278;BMP280;61204;49.980;8.358;2022-09-12T07:53:47;100734.38;;;21.63
72278;BMP280;61204;49.980;8.358;2022-09-12T07:56:14;100735.06;;;21.91
72278;BMP280;61204;49.980;8.358;2022-09-12T07:58:42;100738.31;;;21.81
72278;BMP280;61204;49.980;8.358;2022-09-12T08:01:19;100742.72;;;22.18
72278;BMP280;61204;49.980;8.358;2022-09-12T08:03:50;100743.72;;;22.65
72278;BMP280;61204;49.980;8.358;2022-09-12T08:06:21;100751.16;;;22.52
72278;BMP280;61204;49.980;8.358;2022-09-12T08:08:48;100752.38;;;23.15
72278;BMP280;61204;49.980;8.358;2022-09-12T08:11:18;100749.81;;;23.66
72278;BMP280;61204;49.980;8.358;2022-09-12T08:13:47;100753.91;;;23.61
72278;BMP280;61204;49.980;8.358;2022-09-12T08:16:18;100758.66;;;23.52
72278;BMP280;61204;49.980;8.358;2022-09-12T08:18:46;100746.06;;;23.53
72278;BMP280;61204;49.980;8.358;2022-09-12T08:23:46;100732.00;;;23.47
72278;BMP280;61204;49.980;8.358;2022-09-12T08:26:16;100744.94;;;23.68
72278;BMP280;61204;49.980;8.358;2022-09-12T08:28:44;100742.41;;;23.85
72278;BMP280;61204;49.980;8.358;2022-09-12T08:31:13;100740.06;;;24.15
72278;BMP280;61204;49.980;8.358;2022-09-12T08:33:42;100744.97;;;24.69
72278;BMP280;61204;49.980;8.358;2022-09-12T08:36:16;100745.69;;;24.71
72278;BMP280;61204;49.980;8.358;2022-09-12T08:38:47;100748.41;;;24.65
72278;BMP280;61204;49.980;8.358;2022-09-12T08:41:31;100752.31;;;24.98
72278;BMP280;61204;49.980;8.358;2022-09-12T08:47:38;100758.88;;;26.14
72278;BMP280;61204;49.980;8.358;2022-09-12T08:52:42;100758.91;;;26.22
72278;BMP280;61204;49.980;8.358;2022-09-12T08:57:58;100754.81;;;26.47
72278;BMP280;61204;49.980;8.358;2022-09-12T09:00:34;100747.91;;;26.91
72278;BMP280;61204;49.980;8.358;2022-09-12T09:06:07;100755.72;;;27.49
72278;BMP280;61204;49.980;8.358;2022-09-12T09:08:45;100754.97;;;27.59
72278;BMP280;61204;49.980;8.358;2022-09-12T09:11:40;100747.97;;;27.42
72278;BMP280;61204;49.980;8.358;2022-09-12T09:14:28;100745.81;;;27.22
72278;BMP280;61204;49.980;8.358;2022-09-12T09:17:31;100733.84;;;27.62
72278;BMP280;61204;49.980;8.358;2022-09-12T09:20:27;100732.41;;;27.87
72278;BMP280;61204;49.980;8.358;2022-09-12T09:23:07;100735.28;;;27.37
72278;BMP280;61204;49.980;8.358;2022-09-12T09:26:05;100731.78;;;27.36
72278;BMP280;61204;49.980;8.358;2022-09-12T09:28:49;100739.47;;;27.56
72278;BMP280;61204;49.980;8.358;2022-09-12T09:31:24;100733.69;;;28.19
72278;BMP280;61204;49.980;8.358;2022-09-12T09:33:55;100727.97;;;28.43
72278;BMP280;61204;49.980;8.358;2022-09-12T09:36:28;100727.28;;;28.39
72278;BMP280;61204;49.980;8.358;2022-09-12T09:39:35;100728.91;;;27.71
72278;BMP280;61204;49.980;8.358;2022-09-12T09:45:16;100730.22;;;28.06
72278;BMP280;61204;49.980;8.358;2022-09-12T09:47:56;100730.84;;;28.33
72278;BMP280;61204;49.980;8.358;2022-09-12T09:50:32;100726.63;;;28.28
72278;BMP280;61204;49.980;8.358;2022-09-12T09:52:59;100723.75;;;28.38
72278;BMP280;61204;49.980;8.358;2022-09-12T09:55:33;100720.69;;;28.81
72278;BMP280;61204;49.980;8.358;2022-09-12T09:58:07;100717.84;;;28.83
72278;BMP280;61204;49.980;8.358;2022-09-12T10:00:35;100715.22;;;28.52
72278;BMP280;61204;49.980;8.358;2022-09-12T10:03:24;100723.44;;;28.93
72278;BMP280;61204;49.980;8.358;2022-09-12T10:06:40;100719.66;;;28.05
72278;BMP280;61204;49.980;8.358;2022-09-12T10:09:14;100714.59;;;28.34
72278;BMP280;61204;49.980;8.358;2022-09-12T10:11:49;100709.28;;;28.91
72278;BMP280;61204;49.980;8.358;2022-09-12T10:14:34;100706.28;;;29.15
72278;BMP280;61204;49.980;8.358;2022-09-12T10:20:04;100701.47;;;29.73
72278;BMP280;61204;49.980;8.358;2022-09-12T10:23:33;100692.78;;;29.91
72278;BMP280;61204;49.980;8.358;2022-09-12T10:26:07;100691.09;;;29.53
72278;BMP280;61204;49.980;8.358;2022-09-12T10:28:39;100687.28;;;30.32
72278;BMP280;61204;49.980;8.358;2022-09-12T10:31:24;100688.19;;;30.19
72278;BMP280;61204;49.980;8.358;2022-09-12T10:33:58;100680.34;;;30.68
72278;BMP280;61204;49.980;8.358;2022-09-12T10:36:34;100667.09;;;31.00
72278;BMP280;61204;49.980;8.358;2022-09-12T10:39:04;100667.88;;;30.04
72278;BMP280;61204;49.980;8.358;2022-09-12T10:41:38;100669.06;;;31.07
72278;BMP280;61204;49.980;8.358;2022-09-12T10:44:07;100674.75;;;31.07
72278;BMP280;61204;49.980;8.358;2022-09-12T10:46:41;100662.53;;;30.78
72278;BMP280;61204;49.980;8.358;2022-09-12T10:49:23;100666.63;;;30.85
72278;BMP280;61204;49.980;8.358;2022-09-12T10:51:56;100665.84;;;30.48
72278;BMP280;61204;49.980;8.358;2022-09-12T10:54:41;100660.56;;;31.09
72278;BMP280;61204;49.980;8.358;2022-09-12T11:00:08;100648.94;;;31.26
72278;BMP280;61204;49.980;8.358;2022-09-12T11:06:00;100653.19;;;32.81
72278;BMP280;61204;49.980;8.358;2022-09-12T11:23:43;100646.50;;;32.08
72278;BMP280;61204;49.980;8.358;2022-09-12T11:35:50;100629.09;;;32.22
72278;BMP280;61204;49.980;8.358;2022-09-12T11:38:29;100621.75;;;32.34
72278;BMP280;61204;49.980;8.358;2022-09-12T11:41:32;100626.25;;;32.51
72278;BMP280;61204;49.980;8.358;2022-09-12T11:44:23;100636.25;;;33.29
72278;BMP280;61204;49.980;8.358;2022-09-12T11:46:59;100629.94;;;33.26
72278;BMP280;61204;49.980;8.358;2022-09-12T11:49:47;100632.19;;;33.69
72278;BMP280;61204;49.980;8.358;2022-09-12T11:52:21;100631.16;;;33.33
72278;BMP280;61204;49.980;8.358;2022-09-12T11:57:47;100616.59;;;33.46
72278;BMP280;61204;49.980;8.358;2022-09-12T12:00:22;100619.47;;;32.94
72278;BMP280;61204;49.980;8.358;2022-09-12T12:03:07;100617.94;;;33.71
72278;BMP280;61204;49.980;8.358;2022-09-12T12:06:03;100619.75;;;33.58
72278;BMP280;61204;49.980;8.358;2022-09-12T12:08:41;100613.78;;;32.69
72278;BMP280;61204;49.980;8.358;2022-09-12T12:11:12;100600.91;;;33.69
72278;BMP280;61204;49.980;8.358;2022-09-12T12:14:06;100608.19;;;31.76
72278;BMP280;61204;49.980;8.358;2022-09-12T12:16:42;100602.56;;;31.41
72278;BMP280;61204;49.980;8.358;2022-09-12T12:21:51;100588.94;;;32.94
72278;BMP280;61204;49.980;8.358;2022-09-12T12:24:21;100594.75;;;34.50
72278;BMP280;61204;49.980;8.358;2022-09-12T12:27:11;100588.28;;;34.31
72278;BMP280;61204;49.980;8.358;2022-09-12T12:32:59;100596.88;;;32.63
72278;BMP280;61204;49.980;8.358;2022-09-12T12:38:00;100580.81;;;31.96
72278;BMP280;61204;49.980;8.358;2022-09-12T12:40:29;100578.97;;;32.42
72278;BMP280;61204;49.980;8.358;2022-09-12T12:43:00;100579.25;;;32.85
72278;BMP280;61204;49.980;8.358;2022-09-12T12:48:09;100560.53;;;33.19
72278;BMP280;61204;49.980;8.358;2022-09-12T12:50:40;100552.78;;;34.48
72278;BMP280;61204;49.980;8.358;2022-09-12T12:53:17;100554.09;;;34.51
72278;BMP280;61204;49.980;8.358;2022-09-12T12:55:53;100549.50;;;34.61
72278;BMP280;61204;49.980;8.358;2022-09-12T12:58:37;100548.59;;;34.66
72278;BMP280;61204;49.980;8.358;2022-09-12T13:03:36;100538.13;;;33.09
72278;BMP280;61204;49.980;8.358;2022-09-12T13:06:33;100532.41;;;33.34
72278;BMP280;61204;49.980;8.358;2022-09-12T13:09:07;100537.22;;;32.65
72278;BMP280;61204;49.980;8.358;2022-09-12T13:11:40;100539.78;;;33.00
72278;BMP280;61204;49.980;8.358;2022-09-12T13:14:36;100530.47;;;33.72
72278;BMP280;61204;49.980;8.358;2022-09-12T13:17:42;100533.66;;;32.91
72278;BMP280;61204;49.980;8.358;2022-09-12T13:22:46;100530.91;;;32.63
72278;BMP280;61204;49.980;8.358;2022-09-12T13:28:14;100523.50;;;32.74
72278;BMP280;61204;49.980;8.358;2022-09-12T13:31:06;100508.44;;;33.04
72278;BMP280;61204;49.980;8.358;2022-09-12T13:33:59;100509.28;;;33.46
72278;BMP280;61204;49.980;8.358;2022-09-12T13:39:48;100521.09;;;32.84
72278;BMP280;61204;49.980;8.358;2022-09-12T13:42:43;100505.78;;;33.66
72278;BMP280;61204;49.980;8.358;2022-09-12T13:45:24;100501.59;;;33.86
72278;BMP280;61204;49.980;8.358;2022-09-12T13:48:01;100499.19;;;33.28
72278;BMP280;61204;49.980;8.358;2022-09-12T13:50:38;100500.00;;;33.91
72278;BMP280;61204;49.980;8.358;2022-09-12T13:53:15;100505.94;;;32.92
72278;BMP280;61204;49.980;8.358;2022-09-12T13:55:49;100487.72;;;33.32
72278;BMP280;61204;49.980;8.358;2022-09-12T13:58:32;100500.94;;;32.70
72278;BMP280;61204;49.980;8.358;2022-09-12T14:03:57;100484.69;;;31.57
72278;BMP280;61204;49.980;8.358;2022-09-12T14:09:25;100489.88;;;32.33
72278;BMP280;61204;49.980;8.358;2022-09-12T14:11:57;100489.25;;;32.55
72278;BMP280;61204;49.980;8.358;2022-09-12T14:14:30;100477.47;;;32.44
72278;BMP280;61204;49.980;8.358;2022-09-12T14:17:13;100481.53;;;31.69
72278;BMP280;61204;49.980;8.358;2022-09-12T14:19:59;100474.06;;;32.13
72278;BMP280;61204;49.980;8.358;2022-09-12T14:22:32;100478.22;;;32.70
72278;BMP280;61204;49.980;8.358;2022-09-12T14:25:00;100468.94;;;33.19
72278;BMP280;61204;49.980;8.358;2022-09-12T14:27:41;100467.81;;;31.51
72278;BMP280;61204;49.980;8.358;2022-09-12T14:30:27;100468.22;;;31.63
72278;BMP280;61204;49.980;8.358;2022-09-12T14:33:15;100461.00;;;31.68
72278;BMP280;61204;49.980;8.358;2022-09-12T14:38:58;100453.13;;;32.00
72278;BMP280;61204;49.980;8.358;2022-09-12T14:41:35;100464.69;;;30.99
72278;BMP280;61204;49.980;8.358;2022-09-12T14:44:22;100461.03;;;29.89
72278;BMP280;61204;49.980;8.358;2022-09-12T14:46:51;100450.34;;;29.96
72278;BMP280;61204;49.980;8.358;2022-09-12T14:52:23;100451.03;;;30.40
72278;BMP280;61204;49.980;8.358;2022-09-12T14:58:14;100432.69;;;30.36
72278;BMP280;61204;49.980;8.358;2022-09-12T15:00:56;100431.81;;;30.81
72278;BMP280;61204;49.980;8.358;2022-09-12T15:04:04;100422.88;;;31.63
72278;BMP280;61204;49.980;8.358;2022-09-12T15:06:33;100422.34;;;31.55
72278;BMP280;61204;49.980;8.358;2022-09-12T23:23:27;100254.53;;;15.13
72278;BMP280;61204;49.980;8.358;2022-09-12T23:26:20;100257.72;;;15.07
72278;BMP280;61204;49.980;8.358;2022-09-12T23:28:50;100254.59;;;14.99
72278;BMP280;61204;49.980;8.358;2022-09-12T23:31:23;100253.75;;;14.97
72278;BMP280;61204;49.980;8.358;2022-09-12T23:33:57;100251.53;;;14.93
72278;BMP280;61204;49.980;8.358;2022-09-12T23:36:29;100265.94;;;14.92
72278;BMP280;61204;49.980;8.358;2022-09-12T23:38:55;100272.69;;;14.88
72278;BMP280;61204;49.980;8.358;2022-09-12T23:41:22;100278.31;;;14.91
72278;BMP280;61204;49.980;8.358;2022-09-12T23:43:49;100273.94;;;14.85
72278;BMP280;61204;49.980;8.358;2022-09-12T23:46:17;100271.59;;;14.80
72278;BMP280;61204;49.980;8.358;2022-09-12T23:48:44;100258.97;;;14.75
72278;BMP280;61204;49.980;8.358;2022-09-12T23:51:11;100245.44;;;14.67
72278;BMP280;61204;49.980;8.358;2022-09-12T23:53:37;100240.38;;;14.62
72278;BMP280;61204;49.980;8.358;2022-09-12T23:56:04;100243.56;;;14.56
72278;BMP280;61204;49.980;8.358;2022-09-12T23:58:30;100241.31;;;14.52
